createdAt,value
2017-03-18T00:00:42.718Z,995.57
2017-03-18T00:01:04.422Z,995.66
2017-03-18T00:01:31.006Z,995.51
2017-03-18T00:01:52.846Z,995.55
2017-03-18T00:02:55.486Z,995.51
2017-03-18T00:03:17.185Z,995.51
2017-03-18T00:03:39.012Z,995.54
2017-03-18T00:04:31.981Z,995.67
2017-03-18T00:05:56.449Z,995.52
2017-03-18T00:06:54.797Z,995.45
2017-03-18T00:07:16.586Z,995.59
2017-03-18T00:07:38.319Z,995.58
2017-03-18T00:08:04.808Z,995.57
2017-03-18T00:08:26.607Z,995.55
2017-03-18T00:09:29.717Z,995.38
2017-03-18T00:09:51.616Z,995.53
2017-03-18T00:10:58.822Z,995.68
2017-03-18T00:11:20.655Z,995.61
2017-03-18T00:11:42.389Z,995.67
2017-03-18T00:12:35.374Z,995.56
2017-03-18T00:13:01.961Z,995.58
2017-03-18T00:13:23.687Z,995.48
2017-03-18T00:13:50.164Z,995.41
2017-03-18T00:14:11.894Z,995.51
2017-03-18T00:14:33.794Z,995.55
2017-03-18T00:15:00.270Z,995.67
2017-03-18T00:15:22.073Z,995.60
2017-03-18T00:15:43.893Z,995.55
2017-03-18T00:16:10.381Z,995.66
2017-03-18T00:16:32.091Z,995.45
2017-03-18T00:17:25.165Z,995.53
2017-03-18T00:18:18.256Z,995.38
2017-03-18T00:19:11.267Z,995.53
2017-03-18T00:19:37.789Z,995.55
2017-03-18T00:19:59.593Z,995.36
2017-03-18T00:20:26.095Z,995.53
2017-03-18T00:20:47.799Z,995.45
2017-03-18T00:21:14.381Z,995.49
2017-03-18T00:21:36.082Z,995.55
2017-03-18T00:22:02.558Z,995.37
2017-03-18T00:22:24.383Z,995.52
2017-03-18T00:22:50.883Z,995.45
2017-03-18T00:23:12.611Z,995.60
2017-03-18T00:24:05.685Z,995.46
2017-03-18T00:24:27.503Z,995.52
2017-03-18T00:25:20.509Z,995.48
2017-03-18T00:26:13.602Z,995.48
2017-03-18T00:27:16.133Z,995.59
2017-03-18T00:27:37.932Z,995.41
2017-03-18T00:27:59.640Z,995.44
2017-03-18T00:28:58.057Z,995.39
2017-03-18T00:29:19.832Z,995.40
2017-03-18T00:29:41.563Z,995.35
2017-03-18T00:30:08.051Z,995.25
2017-03-18T00:30:29.846Z,995.36
2017-03-18T00:31:22.902Z,995.28
2017-03-18T00:32:15.859Z,995.30
2017-03-18T00:33:46.465Z,995.36
2017-03-18T00:34:18.979Z,995.41
2017-03-18T00:34:44.856Z,995.31
2017-03-18T00:35:06.557Z,995.31
2017-03-18T00:36:09.150Z,995.41
2017-03-18T00:36:30.859Z,995.20
2017-03-18T00:36:52.645Z,995.22
2017-03-18T00:37:19.248Z,995.14
2017-03-18T00:37:41.027Z,995.15
2017-03-18T00:38:34.105Z,995.06
2017-03-18T00:38:55.819Z,995.09
2017-03-18T00:39:20.225Z,995.09
2017-03-18T00:39:41.951Z,994.95
2017-03-18T00:40:03.712Z,995.10
2017-03-18T00:40:25.536Z,994.92
2017-03-18T00:40:47.226Z,994.97
2017-03-18T00:41:08.924Z,995.06
2017-03-18T00:42:01.885Z,994.90
2017-03-18T00:42:23.600Z,995.10
2017-03-18T00:42:50.065Z,994.93
2017-03-18T00:43:11.893Z,994.87
2017-03-18T00:43:33.604Z,994.91
2017-03-18T00:44:26.632Z,994.86
2017-03-18T00:45:29.809Z,994.95
2017-03-18T00:45:51.518Z,994.97
2017-03-18T00:46:13.325Z,994.94
2017-03-18T00:46:39.801Z,994.81
2017-03-18T00:47:01.491Z,994.92
2017-03-18T00:47:54.461Z,995.08
2017-03-18T00:48:47.437Z,994.81
2017-03-18T00:49:40.493Z,994.82
2017-03-18T00:50:06.978Z,994.84
2017-03-18T00:50:28.795Z,994.76
2017-03-18T00:50:50.508Z,994.86
2017-03-18T00:51:17.022Z,994.84
2017-03-18T00:51:38.830Z,994.77
2017-03-18T00:52:05.308Z,994.71
2017-03-18T00:52:26.996Z,994.85
2017-03-18T00:52:48.794Z,994.68
2017-03-18T00:53:10.507Z,994.84
2017-03-18T00:53:32.200Z,994.81
2017-03-18T00:53:53.896Z,994.68
2017-03-18T00:54:15.742Z,994.73
2017-03-18T00:54:37.455Z,994.71
2017-03-18T00:54:59.164Z,994.83
2017-03-18T00:55:25.641Z,994.73
2017-03-18T00:55:47.424Z,994.78
2017-03-18T00:56:09.122Z,994.72
2017-03-18T00:57:02.167Z,994.64
2017-03-18T00:58:58.251Z,994.75
2017-03-18T00:59:24.737Z,994.68
2017-03-18T00:59:46.536Z,994.55
2017-03-18T01:00:08.245Z,994.64
2017-03-18T01:01:01.277Z,994.53
2017-03-18T01:01:54.216Z,994.49
2017-03-18T01:02:47.248Z,994.40
2017-03-18T01:03:40.317Z,994.54
2017-03-18T01:04:33.384Z,994.40
2017-03-18T01:04:55.092Z,994.50
2017-03-18T01:05:16.800Z,994.47
2017-03-18T01:05:38.502Z,994.47
2017-03-18T01:06:00.209Z,994.49
2017-03-18T01:06:53.258Z,994.47
2017-03-18T01:07:15.121Z,994.53
2017-03-18T01:08:08.087Z,994.49
2017-03-18T01:09:11.275Z,994.61
2017-03-18T01:09:32.992Z,994.47
2017-03-18T01:10:31.409Z,994.35
2017-03-18T01:10:53.099Z,994.26
2017-03-18T01:11:50.932Z,994.30
2017-03-18T01:12:12.638Z,994.24
2017-03-18T01:13:05.604Z,994.28
2017-03-18T01:13:27.314Z,994.41
2017-03-18T01:14:20.279Z,994.12
2017-03-18T01:14:42.004Z,994.24
2017-03-18T01:15:08.473Z,994.49
2017-03-18T01:15:30.291Z,994.24
2017-03-18T01:15:56.793Z,994.35
2017-03-18T01:16:18.511Z,994.19
2017-03-18T01:16:40.249Z,994.33
2017-03-18T01:17:02.030Z,994.27
2017-03-18T01:17:23.771Z,994.20
2017-03-18T01:17:45.492Z,994.16
2017-03-18T01:18:11.964Z,994.13
2017-03-18T01:18:33.758Z,994.34
2017-03-18T01:19:00.241Z,994.44
2017-03-18T01:19:21.944Z,994.15
2017-03-18T01:19:48.420Z,994.36
2017-03-18T01:20:10.235Z,994.15
2017-03-18T01:20:31.925Z,994.23
2017-03-18T01:20:53.623Z,994.17
2017-03-18T01:21:15.413Z,994.13
2017-03-18T01:21:37.014Z,994.19
2017-03-18T01:22:03.501Z,994.12
2017-03-18T01:22:25.226Z,994.25
2017-03-18T01:22:51.806Z,994.07
2017-03-18T01:23:13.511Z,994.24
2017-03-18T01:23:35.203Z,994.16
2017-03-18T01:23:56.995Z,994.08
2017-03-18T01:24:55.304Z,994.24
2017-03-18T01:25:16.990Z,994.08
2017-03-18T01:25:43.564Z,994.14
2017-03-18T01:26:05.281Z,994.21
2017-03-18T01:26:26.987Z,994.24
2017-03-18T01:26:53.457Z,994.23
2017-03-18T01:27:15.211Z,994.09
2017-03-18T01:27:41.689Z,993.98
2017-03-18T01:28:03.402Z,994.10
2017-03-18T01:28:29.868Z,994.19
2017-03-18T01:28:51.681Z,994.06
2017-03-18T01:29:18.163Z,994.08
2017-03-18T01:29:39.862Z,994.10
2017-03-18T01:30:01.653Z,994.07
2017-03-18T01:30:54.636Z,994.20
2017-03-18T01:31:16.433Z,994.18
2017-03-18T01:31:42.909Z,994.12
2017-03-18T01:32:04.606Z,994.02
2017-03-18T01:33:07.122Z,994.09
2017-03-18T01:33:28.924Z,994.35
2017-03-18T01:34:21.889Z,994.10
2017-03-18T01:34:43.602Z,993.99
2017-03-18T01:35:10.069Z,994.13
2017-03-18T01:35:31.772Z,994.21
2017-03-18T01:35:58.331Z,994.21
2017-03-18T01:36:20.022Z,994.08
2017-03-18T01:36:41.726Z,994.08
2017-03-18T01:37:34.792Z,994.04
2017-03-18T01:37:56.625Z,993.87
2017-03-18T01:38:23.113Z,993.90
2017-03-18T01:38:44.807Z,994.06
2017-03-18T01:39:06.505Z,993.98
2017-03-18T01:39:59.471Z,994.09
2017-03-18T01:40:21.193Z,994.11
2017-03-18T01:40:42.901Z,994.30
2017-03-18T01:41:04.623Z,994.17
2017-03-18T01:41:31.213Z,994.03
2017-03-18T01:41:52.946Z,994.12
2017-03-18T01:42:14.657Z,993.95
2017-03-18T01:42:41.150Z,994.02
2017-03-18T01:43:39.567Z,993.95
2017-03-18T01:45:13.440Z,993.96
2017-03-18T01:45:35.129Z,994.01
2017-03-18T01:46:28.166Z,993.82
2017-03-18T01:46:49.905Z,994.00
2017-03-18T01:47:42.961Z,993.90
2017-03-18T01:48:50.230Z,993.91
2017-03-18T01:49:14.862Z,993.79
2017-03-18T01:49:36.926Z,993.97
2017-03-18T01:49:58.725Z,994.03
2017-03-18T01:50:20.464Z,994.11
2017-03-18T01:50:42.175Z,993.86
2017-03-18T01:51:04.031Z,993.91
2017-03-18T01:51:30.709Z,994.24
2017-03-18T01:51:52.416Z,993.86
2017-03-18T01:52:14.371Z,993.92
2017-03-18T01:52:36.151Z,993.74
2017-03-18T01:52:58.088Z,993.80
2017-03-18T01:53:20.367Z,993.79
2017-03-18T01:53:42.108Z,993.99
2017-03-18T01:54:04.436Z,993.92
2017-03-18T01:54:26.632Z,993.81
2017-03-18T01:54:48.363Z,993.72
2017-03-18T01:55:10.510Z,993.80
2017-03-18T01:55:32.581Z,994.10
2017-03-18T01:55:56.475Z,993.73
2017-03-18T01:56:18.431Z,993.90
2017-03-18T01:56:40.624Z,993.83
2017-03-18T01:57:02.490Z,993.88
2017-03-18T01:57:24.472Z,993.75
2017-03-18T01:57:46.432Z,993.77
2017-03-18T01:58:08.233Z,993.77
2017-03-18T01:58:30.436Z,993.77
2017-03-18T01:58:52.415Z,993.83
2017-03-18T01:59:14.312Z,993.88
2017-03-18T01:59:36.295Z,993.73
2017-03-18T01:59:58.107Z,994.07
2017-03-18T02:00:20.059Z,993.60
2017-03-18T02:00:42.294Z,993.65
2017-03-18T02:01:08.587Z,993.93
2017-03-18T02:01:30.294Z,993.73
2017-03-18T02:01:52.172Z,993.83
2017-03-18T02:02:18.790Z,993.77
2017-03-18T02:02:41.286Z,993.82
2017-03-18T02:03:03.503Z,993.86
2017-03-18T02:03:26.553Z,993.74
2017-03-18T02:03:48.864Z,993.71
2017-03-18T02:04:10.679Z,993.71
2017-03-18T02:04:32.528Z,993.77
2017-03-18T02:04:54.685Z,993.83
2017-03-18T02:05:16.455Z,993.65
2017-03-18T02:05:38.166Z,993.70
2017-03-18T02:05:59.893Z,993.84
2017-03-18T02:06:21.877Z,993.73
2017-03-18T02:06:43.623Z,993.69
2017-03-18T02:07:05.368Z,993.47
2017-03-18T02:07:27.100Z,993.73
2017-03-18T02:07:51.884Z,993.85
2017-03-18T02:08:13.700Z,993.71
2017-03-18T02:08:35.573Z,993.92
2017-03-18T02:08:57.523Z,993.54
2017-03-18T02:09:19.277Z,993.53
2017-03-18T02:09:41.029Z,993.71
2017-03-18T02:10:02.736Z,993.67
2017-03-18T02:10:24.513Z,993.73
2017-03-18T02:10:46.356Z,993.62
2017-03-18T02:11:08.549Z,993.68
2017-03-18T02:11:30.406Z,993.64
2017-03-18T02:11:52.981Z,993.65
2017-03-18T02:12:14.699Z,993.45
2017-03-18T02:12:36.494Z,993.56
2017-03-18T02:12:58.305Z,993.76
2017-03-18T02:13:20.043Z,993.53
2017-03-18T02:13:42.776Z,993.53
2017-03-18T02:14:04.613Z,993.48
2017-03-18T02:14:26.504Z,993.65
2017-03-18T02:14:48.356Z,993.54
2017-03-18T02:15:10.113Z,993.67
2017-03-18T02:15:32.303Z,993.70
2017-03-18T02:15:54.351Z,993.65
2017-03-18T02:16:16.134Z,993.65
2017-03-18T02:16:38.511Z,993.66
2017-03-18T02:17:00.282Z,993.62
2017-03-18T02:17:21.979Z,993.54
2017-03-18T02:17:44.209Z,993.72
2017-03-18T02:18:05.967Z,993.56
2017-03-18T02:18:58.851Z,993.49
2017-03-18T02:19:20.546Z,993.69
2017-03-18T02:19:42.666Z,993.53
2017-03-18T02:20:04.449Z,993.44
2017-03-18T02:20:26.221Z,993.53
2017-03-18T02:20:47.950Z,993.58
2017-03-18T02:21:10.169Z,993.54
2017-03-18T02:21:32.028Z,993.41
2017-03-18T02:21:54.174Z,993.76
2017-03-18T02:22:16.728Z,993.41
2017-03-18T02:22:38.724Z,993.40
2017-03-18T02:23:00.650Z,993.30
2017-03-18T02:23:22.691Z,993.38
2017-03-18T02:23:45.014Z,993.32
2017-03-18T02:24:11.722Z,993.36
2017-03-18T02:24:33.438Z,993.28
2017-03-18T02:24:55.287Z,993.33
2017-03-18T02:25:54.002Z,993.24
2017-03-18T02:26:15.812Z,993.24
2017-03-18T02:26:38.052Z,993.34
2017-03-18T02:28:02.439Z,993.12
2017-03-18T02:28:24.839Z,993.11
2017-03-18T02:28:46.584Z,993.11
2017-03-18T02:29:08.617Z,993.17
2017-03-18T02:29:30.811Z,992.99
2017-03-18T02:29:52.534Z,993.19
2017-03-18T02:30:14.571Z,993.13
2017-03-18T02:30:36.323Z,992.92
2017-03-18T02:30:58.221Z,993.08
2017-03-18T02:31:21.542Z,993.12
2017-03-18T02:31:43.416Z,993.04
2017-03-18T02:32:05.399Z,993.06
2017-03-18T02:32:27.086Z,993.07
2017-03-18T02:32:49.228Z,993.11
2017-03-18T02:33:11.377Z,993.15
2017-03-18T02:33:33.377Z,993.15
2017-03-18T02:33:55.103Z,993.12
2017-03-18T02:34:17.279Z,993.09
2017-03-18T02:35:19.871Z,993.13
2017-03-18T02:35:41.802Z,993.06
2017-03-18T02:36:03.814Z,993.09
2017-03-18T02:36:28.381Z,993.13
2017-03-18T02:36:50.312Z,993.18
2017-03-18T02:37:12.354Z,993.08
2017-03-18T02:37:34.651Z,993.23
2017-03-18T02:37:56.377Z,993.31
2017-03-18T02:38:18.136Z,993.20
2017-03-18T02:38:40.001Z,993.17
2017-03-18T02:39:01.753Z,993.07
2017-03-18T02:39:28.339Z,993.17
2017-03-18T02:39:54.792Z,993.30
2017-03-18T02:40:16.997Z,993.16
2017-03-18T02:40:38.971Z,993.16
2017-03-18T02:41:01.341Z,993.24
2017-03-18T02:41:23.087Z,993.16
2017-03-18T02:41:45.037Z,993.13
2017-03-18T02:42:07.079Z,993.22
2017-03-18T02:42:29.282Z,993.23
2017-03-18T02:42:51.541Z,993.09
2017-03-18T02:43:13.906Z,993.18
2017-03-18T02:43:35.609Z,993.19
2017-03-18T02:43:57.420Z,993.03
2017-03-18T02:44:19.386Z,993.04
2017-03-18T02:44:41.343Z,992.97
2017-03-18T02:45:03.565Z,993.22
2017-03-18T02:46:38.610Z,993.07
2017-03-18T02:47:00.392Z,993.13
2017-03-18T02:47:22.563Z,993.12
2017-03-18T02:47:44.252Z,993.02
2017-03-18T02:48:06.966Z,992.90
2017-03-18T02:48:28.705Z,992.97
2017-03-18T02:48:50.658Z,992.98
2017-03-18T02:49:12.448Z,992.86
2017-03-18T02:49:34.436Z,992.95
2017-03-18T02:49:56.139Z,993.15
2017-03-18T02:50:17.904Z,992.80
2017-03-18T02:50:39.779Z,992.96
2017-03-18T02:51:01.673Z,992.76
2017-03-18T02:51:23.409Z,992.76
2017-03-18T02:51:46.168Z,992.72
2017-03-18T02:52:07.927Z,992.77
2017-03-18T02:52:29.649Z,992.82
2017-03-18T02:52:51.799Z,992.82
2017-03-18T02:53:13.834Z,992.81
2017-03-18T02:54:16.787Z,992.78
2017-03-18T02:54:38.562Z,992.84
2017-03-18T02:55:00.312Z,992.84
2017-03-18T02:55:22.372Z,992.99
2017-03-18T02:55:49.149Z,992.99
2017-03-18T02:56:10.924Z,992.91
2017-03-18T02:56:32.854Z,992.90
2017-03-18T02:56:54.779Z,992.96
2017-03-18T02:57:16.681Z,993.03
2017-03-18T02:57:38.594Z,993.10
2017-03-18T02:58:00.577Z,993.11
2017-03-18T02:58:22.633Z,993.10
2017-03-18T02:58:44.341Z,993.06
2017-03-18T02:59:37.348Z,993.03
2017-03-18T02:59:59.354Z,993.19
2017-03-18T03:00:21.592Z,993.03
2017-03-18T03:00:43.320Z,993.09
2017-03-18T03:01:05.247Z,993.20
2017-03-18T03:01:26.954Z,993.14
2017-03-18T03:01:48.674Z,993.43
2017-03-18T03:02:10.494Z,993.31
2017-03-18T03:02:32.236Z,993.33
2017-03-18T03:02:53.953Z,993.23
2017-03-18T03:03:15.724Z,993.23
2017-03-18T03:03:37.536Z,993.17
2017-03-18T03:03:59.275Z,993.24
2017-03-18T03:04:21.005Z,993.21
2017-03-18T03:04:42.741Z,993.22
2017-03-18T03:05:05.461Z,993.25
2017-03-18T03:05:27.253Z,993.14
2017-03-18T03:06:20.297Z,993.06
2017-03-18T03:06:42.023Z,993.03
2017-03-18T03:07:03.744Z,993.03
2017-03-18T03:07:25.457Z,993.06
2017-03-18T03:08:18.554Z,993.15
2017-03-18T03:08:40.273Z,993.06
2017-03-18T03:09:06.765Z,993.18
2017-03-18T03:09:28.491Z,993.10
2017-03-18T03:10:31.585Z,993.06
2017-03-18T03:10:53.437Z,993.11
2017-03-18T03:11:19.912Z,993.16
2017-03-18T03:11:41.608Z,993.12
2017-03-18T03:12:03.340Z,993.03
2017-03-18T03:12:25.170Z,993.12
2017-03-18T03:12:46.885Z,993.07
2017-03-18T03:13:39.873Z,993.07
2017-03-18T03:14:06.396Z,993.08
2017-03-18T03:14:28.134Z,993.12
2017-03-18T03:14:54.623Z,993.18
2017-03-18T03:15:16.405Z,993.06
2017-03-18T03:15:38.115Z,993.09
2017-03-18T03:15:59.816Z,993.13
2017-03-18T03:16:52.895Z,993.14
2017-03-18T03:17:14.618Z,993.15
2017-03-18T03:17:41.099Z,993.15
2017-03-18T03:18:02.923Z,993.09
2017-03-18T03:18:29.401Z,993.06
2017-03-18T03:18:51.112Z,993.13
2017-03-18T03:19:17.605Z,993.19
2017-03-18T03:19:39.411Z,993.23
2017-03-18T03:20:05.906Z,993.39
2017-03-18T03:20:27.604Z,993.22
2017-03-18T03:20:49.310Z,993.28
2017-03-18T03:21:15.891Z,993.19
2017-03-18T03:21:37.627Z,993.36
2017-03-18T03:22:04.194Z,993.26
2017-03-18T03:22:25.941Z,993.39
2017-03-18T03:22:52.426Z,993.27
2017-03-18T03:23:14.178Z,993.27
2017-03-18T03:23:35.981Z,993.29
2017-03-18T03:24:28.949Z,993.31
2017-03-18T03:24:55.425Z,993.35
2017-03-18T03:25:17.181Z,993.26
2017-03-18T03:26:24.468Z,993.32
2017-03-18T03:26:46.276Z,993.32
2017-03-18T03:27:08.015Z,993.35
2017-03-18T03:27:34.507Z,993.24
2017-03-18T03:27:56.301Z,993.26
2017-03-18T03:28:18.003Z,993.32
2017-03-18T03:29:11.040Z,993.27
2017-03-18T03:29:32.743Z,993.27
2017-03-18T03:30:25.826Z,993.41
2017-03-18T03:30:47.563Z,993.52
2017-03-18T03:31:40.707Z,993.42
2017-03-18T03:33:14.601Z,993.37
2017-03-18T03:33:41.094Z,993.34
2017-03-18T03:34:14.445Z,993.41
2017-03-18T03:34:46.319Z,993.39
2017-03-18T03:35:12.125Z,993.43
2017-03-18T03:35:33.935Z,993.40
2017-03-18T03:35:55.700Z,993.37
2017-03-18T03:36:22.242Z,993.56
2017-03-18T03:36:44.050Z,993.48
2017-03-18T03:37:05.766Z,993.32
2017-03-18T03:37:58.813Z,993.36
2017-03-18T03:38:20.517Z,993.28
2017-03-18T03:38:47.012Z,993.34
2017-03-18T03:39:08.713Z,993.32
2017-03-18T03:40:01.687Z,993.43
2017-03-18T03:40:28.212Z,993.26
2017-03-18T03:40:50.024Z,993.27
2017-03-18T03:41:16.527Z,993.23
2017-03-18T03:41:41.307Z,993.23
2017-03-18T03:42:03.047Z,993.31
2017-03-18T03:42:29.511Z,993.18
2017-03-18T03:42:51.316Z,993.32
2017-03-18T03:43:13.040Z,993.43
2017-03-18T03:44:06.116Z,993.26
2017-03-18T03:44:59.081Z,993.22
2017-03-18T03:45:20.898Z,993.32
2017-03-18T03:45:47.384Z,993.40
2017-03-18T03:46:09.089Z,993.31
2017-03-18T03:46:35.578Z,993.38
2017-03-18T03:46:57.338Z,993.27
2017-03-18T03:47:50.336Z,993.40
2017-03-18T03:48:48.758Z,993.45
2017-03-18T03:49:41.830Z,993.37
2017-03-18T03:50:40.244Z,993.51
2017-03-18T03:51:01.946Z,993.46
2017-03-18T03:51:28.427Z,993.33
2017-03-18T03:51:50.259Z,993.53
2017-03-18T03:52:43.306Z,993.55
2017-03-18T03:53:05.125Z,993.38
2017-03-18T03:53:31.626Z,993.32
2017-03-18T03:53:53.369Z,993.34
2017-03-18T03:54:15.178Z,993.37
2017-03-18T03:54:41.681Z,993.36
2017-03-18T03:55:03.397Z,993.45
2017-03-18T03:55:25.107Z,993.57
2017-03-18T03:56:18.192Z,993.51
2017-03-18T03:56:39.904Z,993.46
2017-03-18T03:57:32.966Z,993.61
2017-03-18T03:57:54.697Z,993.53
2017-03-18T03:58:27.189Z,993.61
2017-03-18T03:58:48.894Z,993.57
2017-03-18T03:59:15.377Z,993.46
2017-03-18T03:59:37.219Z,993.57
2017-03-18T04:00:03.701Z,993.53
2017-03-18T04:00:25.423Z,993.48
2017-03-18T04:00:51.910Z,993.45
2017-03-18T04:01:13.706Z,993.49
2017-03-18T04:01:35.418Z,993.47
2017-03-18T04:01:57.161Z,993.50
2017-03-18T04:02:18.972Z,993.54
2017-03-18T04:02:40.685Z,993.46
2017-03-18T04:03:02.420Z,993.47
2017-03-18T04:03:24.153Z,993.39
2017-03-18T04:04:27.466Z,993.52
2017-03-18T04:04:49.194Z,993.42
2017-03-18T04:05:42.242Z,993.37
2017-03-18T04:06:45.365Z,993.38
2017-03-18T04:07:07.199Z,993.35
2017-03-18T04:07:28.893Z,993.29
2017-03-18T04:08:21.930Z,993.35
2017-03-18T04:08:48.409Z,993.47
2017-03-18T04:09:10.111Z,993.33
2017-03-18T04:09:36.578Z,993.29
2017-03-18T04:09:58.370Z,993.45
2017-03-18T04:10:20.064Z,993.30
2017-03-18T04:10:41.775Z,993.30
2017-03-18T04:11:03.489Z,993.39
2017-03-18T04:11:25.291Z,993.42
2017-03-18T04:11:47.011Z,993.38
2017-03-18T04:12:08.750Z,993.35
2017-03-18T04:12:35.235Z,993.33
2017-03-18T04:12:57.111Z,993.32
2017-03-18T04:13:19.006Z,993.36
2017-03-18T04:13:40.699Z,993.40
2017-03-18T04:14:02.397Z,993.34
2017-03-18T04:14:24.190Z,993.46
2017-03-18T04:14:45.887Z,993.35
2017-03-18T04:15:12.352Z,993.31
2017-03-18T04:15:34.043Z,993.24
2017-03-18T04:15:55.740Z,993.36
2017-03-18T04:16:17.531Z,993.29
2017-03-18T04:16:39.310Z,993.40
2017-03-18T04:17:32.384Z,993.44
2017-03-18T04:18:25.437Z,993.24
2017-03-18T04:18:47.136Z,993.23
2017-03-18T04:19:13.708Z,993.19
2017-03-18T04:19:35.399Z,993.43
2017-03-18T04:19:57.098Z,993.49
2017-03-18T04:20:18.887Z,993.32
2017-03-18T04:20:40.577Z,993.38
2017-03-18T04:21:02.358Z,993.22
2017-03-18T04:21:24.152Z,993.21
2017-03-18T04:21:45.839Z,993.28
2017-03-18T04:22:07.545Z,993.57
2017-03-18T04:22:29.272Z,993.14
2017-03-18T04:22:51.008Z,993.19
2017-03-18T04:23:44.069Z,993.23
2017-03-18T04:24:10.679Z,993.34
2017-03-18T04:24:32.468Z,993.18
2017-03-18T04:24:58.937Z,993.39
2017-03-18T04:25:20.627Z,993.32
2017-03-18T04:25:47.232Z,993.23
2017-03-18T04:26:08.949Z,993.42
2017-03-18T04:26:35.426Z,993.30
2017-03-18T04:26:57.125Z,993.38
2017-03-18T04:27:23.681Z,993.36
2017-03-18T04:28:26.192Z,993.32
2017-03-18T04:28:47.980Z,993.18
2017-03-18T04:29:09.777Z,993.18
2017-03-18T04:29:34.227Z,993.34
2017-03-18T04:30:27.270Z,993.56
2017-03-18T04:30:53.751Z,993.38
2017-03-18T04:31:15.438Z,993.38
2017-03-18T04:32:08.394Z,993.40
2017-03-18T04:32:30.090Z,993.18
2017-03-18T04:32:56.659Z,993.15
2017-03-18T04:33:18.360Z,993.24
2017-03-18T04:33:40.060Z,993.29
2017-03-18T04:34:06.628Z,993.28
2017-03-18T04:34:28.324Z,993.29
2017-03-18T04:34:50.020Z,993.40
2017-03-18T04:35:16.581Z,992.99
2017-03-18T04:35:38.300Z,993.16
2017-03-18T04:35:59.992Z,993.16
2017-03-18T04:36:21.688Z,993.17
2017-03-18T04:36:43.471Z,993.19
2017-03-18T04:37:36.418Z,993.24
2017-03-18T04:37:58.225Z,993.14
2017-03-18T04:38:20.031Z,993.24
2017-03-18T04:38:46.596Z,993.13
2017-03-18T04:39:08.292Z,993.11
2017-03-18T04:39:29.994Z,993.23
2017-03-18T04:39:51.690Z,993.21
2017-03-18T04:40:13.376Z,993.25
2017-03-18T04:40:35.158Z,993.28
2017-03-18T04:40:56.859Z,993.04
2017-03-18T04:41:18.554Z,993.08
2017-03-18T04:41:40.251Z,993.27
2017-03-18T04:42:02.073Z,993.20
2017-03-18T04:42:23.767Z,993.13
2017-03-18T04:42:45.460Z,993.03
2017-03-18T04:43:07.184Z,993.05
2017-03-18T04:43:33.783Z,993.12
2017-03-18T04:43:55.472Z,993.14
2017-03-18T04:44:17.175Z,993.13
2017-03-18T04:44:43.733Z,993.01
2017-03-18T04:45:05.455Z,993.05
2017-03-18T04:45:31.919Z,993.08
2017-03-18T04:45:53.695Z,992.90
2017-03-18T04:46:20.172Z,992.87
2017-03-18T04:46:41.868Z,992.91
2017-03-18T04:47:03.556Z,993.00
2017-03-18T04:47:25.264Z,993.01
2017-03-18T04:47:46.950Z,992.92
2017-03-18T04:48:08.664Z,992.97
2017-03-18T04:48:35.133Z,993.26
2017-03-18T04:48:56.856Z,993.08
2017-03-18T04:49:49.798Z,993.01
2017-03-18T04:50:16.285Z,993.03
2017-03-18T04:50:37.987Z,992.99
2017-03-18T04:50:59.676Z,993.06
2017-03-18T04:51:21.465Z,992.92
2017-03-18T04:51:43.189Z,992.94
2017-03-18T04:52:36.402Z,992.95
2017-03-18T04:52:58.092Z,993.07
2017-03-18T04:53:24.582Z,992.99
2017-03-18T04:53:46.273Z,993.00
2017-03-18T04:54:08.079Z,992.98
2017-03-18T04:54:34.553Z,993.06
2017-03-18T04:54:56.258Z,992.89
2017-03-18T04:55:22.752Z,992.95
2017-03-18T04:55:44.443Z,992.86
2017-03-18T04:56:06.228Z,992.79
2017-03-18T04:56:28.012Z,992.77
2017-03-18T04:56:49.710Z,992.95
2017-03-18T04:57:11.588Z,992.96
2017-03-18T04:57:38.061Z,992.95
2017-03-18T04:57:59.747Z,992.99
2017-03-18T04:58:26.330Z,992.74
2017-03-18T04:58:48.084Z,992.84
2017-03-18T04:59:41.026Z,992.75
2017-03-18T05:00:02.721Z,992.83
2017-03-18T05:00:24.434Z,992.87
2017-03-18T05:00:46.236Z,992.85
2017-03-18T05:01:39.166Z,992.85
2017-03-18T05:02:00.871Z,992.73
2017-03-18T05:02:22.671Z,992.72
2017-03-18T05:02:44.363Z,992.79
2017-03-18T05:03:06.152Z,992.68
2017-03-18T05:03:32.725Z,992.72
2017-03-18T05:03:54.422Z,992.91
2017-03-18T05:04:21.000Z,992.98
2017-03-18T05:04:42.690Z,992.89
2017-03-18T05:05:04.462Z,992.85
2017-03-18T05:05:26.246Z,992.99
2017-03-18T05:05:47.943Z,992.81
2017-03-18T05:06:09.738Z,992.76
2017-03-18T05:07:02.675Z,992.89
2017-03-18T05:07:24.376Z,992.86
2017-03-18T05:07:46.172Z,992.78
2017-03-18T05:08:07.863Z,992.80
2017-03-18T05:08:29.557Z,992.65
2017-03-18T05:08:51.364Z,992.59
2017-03-18T05:09:13.070Z,992.67
2017-03-18T05:09:34.780Z,992.85
2017-03-18T05:10:33.146Z,992.89
2017-03-18T05:10:54.920Z,992.67
2017-03-18T05:11:16.795Z,992.66
2017-03-18T05:11:38.582Z,992.82
2017-03-18T05:12:00.267Z,992.85
2017-03-18T05:12:26.824Z,992.84
2017-03-18T05:12:48.520Z,992.69
2017-03-18T05:13:10.211Z,992.66
2017-03-18T05:13:36.766Z,992.96
2017-03-18T05:13:58.459Z,992.91
2017-03-18T05:14:51.532Z,992.71
2017-03-18T05:15:13.221Z,992.91
2017-03-18T05:15:39.690Z,992.94
2017-03-18T05:16:01.469Z,992.91
2017-03-18T05:16:23.158Z,992.77
2017-03-18T05:17:26.330Z,992.76
2017-03-18T05:17:48.029Z,992.79
2017-03-18T05:18:46.299Z,992.74
2017-03-18T05:19:08.085Z,992.71
2017-03-18T05:19:34.552Z,992.55
2017-03-18T05:19:56.270Z,992.70
2017-03-18T05:20:18.078Z,992.59
2017-03-18T05:20:44.553Z,992.70
2017-03-18T05:21:06.241Z,992.87
2017-03-18T05:21:27.935Z,992.67
2017-03-18T05:21:49.713Z,992.70
2017-03-18T05:22:11.435Z,992.58
2017-03-18T05:22:33.116Z,992.70
2017-03-18T05:22:54.811Z,992.68
2017-03-18T05:23:21.397Z,992.86
2017-03-18T05:23:43.092Z,992.81
2017-03-18T05:24:04.798Z,992.68
2017-03-18T05:24:26.589Z,992.61
2017-03-18T05:24:48.271Z,992.75
2017-03-18T05:25:09.980Z,992.72
2017-03-18T05:25:36.450Z,992.75
2017-03-18T05:25:58.139Z,992.82
2017-03-18T05:26:19.933Z,992.70
2017-03-18T05:27:23.211Z,992.93
2017-03-18T05:27:44.949Z,992.66
2017-03-18T05:28:42.632Z,992.77
2017-03-18T05:29:04.331Z,992.88
2017-03-18T05:29:26.043Z,992.72
2017-03-18T05:29:52.526Z,992.76
2017-03-18T05:30:14.226Z,992.83
2017-03-18T05:30:40.721Z,992.85
2017-03-18T05:31:02.447Z,992.76
2017-03-18T05:31:55.413Z,992.91
2017-03-18T05:32:21.900Z,992.77
2017-03-18T05:32:43.684Z,992.66
2017-03-18T05:33:05.400Z,992.78
2017-03-18T05:33:58.361Z,992.99
2017-03-18T05:34:20.074Z,992.90
2017-03-18T05:34:46.558Z,992.76
2017-03-18T05:35:08.269Z,992.80
2017-03-18T05:35:34.840Z,992.86
2017-03-18T05:35:56.582Z,992.89
2017-03-18T05:36:49.639Z,992.77
2017-03-18T05:37:11.336Z,992.88
2017-03-18T05:37:37.897Z,992.82
2017-03-18T05:37:59.649Z,992.80
2017-03-18T05:38:26.109Z,992.86
2017-03-18T05:38:47.836Z,992.85
2017-03-18T05:39:14.376Z,992.88
2017-03-18T05:39:36.082Z,992.76
2017-03-18T05:39:57.774Z,992.72
2017-03-18T05:40:24.259Z,992.73
2017-03-18T05:40:45.954Z,992.83
2017-03-18T05:41:07.685Z,992.67
2017-03-18T05:41:29.478Z,992.80
2017-03-18T05:41:51.192Z,992.75
2017-03-18T05:42:12.897Z,992.78
2017-03-18T05:42:34.612Z,992.80
2017-03-18T05:42:56.328Z,992.83
2017-03-18T05:43:49.303Z,992.89
2017-03-18T05:44:11.006Z,992.95
2017-03-18T05:44:32.708Z,992.87
2017-03-18T05:44:54.411Z,992.90
2017-03-18T05:45:20.885Z,992.81
2017-03-18T05:45:42.589Z,992.76
2017-03-18T05:46:04.289Z,992.74
2017-03-18T05:46:30.859Z,992.84
2017-03-18T05:46:52.548Z,992.78
2017-03-18T05:47:14.258Z,992.75